sensor_id;sensor_type;location;lat;lon;timestamp;temperature;humidity
52397;DHT22;38322;53.108;6.308;2023-11-22T06:02:04;2.40;99.90
52397;DHT22;38322;53.108;6.308;2023-11-22T06:04:30;2.40;99.90
52397;DHT22;38322;53.108;6.308;2023-11-22T06:06:56;2.40;99.90
52397;DHT22;38322;53.108;6.308;2023-11-22T06:09:22;2.40;99.90
52397;DHT22;38322;53.108;6.308;2023-11-22T06:11:48;2.40;99.90
52397;DHT22;38322;53.108;6.308;2023-11-22T06:14:14;2.30;99.90
52397;DHT22;38322;53.108;6.308;2023-11-22T06:16:40;2.40;99.90
52397;DHT22;38322;53.108;6.308;2023-11-22T06:19:06;2.40;99.90
52397;DHT22;38322;53.108;6.308;2023-11-22T06:21:32;2.40;99.90
52397;DHT22;38322;53.108;6.308;2023-11-22T06:23:59;2.40;99.90
52397;DHT22;38322;53.108;6.308;2023-11-22T06:26:27;2.40;99.90
52397;DHT22;38322;53.108;6.308;2023-11-22T06:28:53;2.40;99.90
52397;DHT22;38322;53.108;6.308;2023-11-22T06:31:18;2.40;99.90
52397;DHT22;38322;53.108;6.308;2023-11-22T06:33:44;2.40;99.90
52397;DHT22;38322;53.108;6.308;2023-11-22T06:36:10;2.40;99.90
52397;DHT22;38322;53.108;6.308;2023-11-22T06:38:37;2.40;99.90
52397;DHT22;38322;53.108;6.308;2023-11-22T06:41:04;2.30;99.90
52397;DHT22;38322;53.108;6.308;2023-11-22T06:43:30;2.30;99.90
52397;DHT22;38322;53.108;6.308;2023-11-22T06:45:55;2.30;99.90
52397;DHT22;38322;53.108;6.308;2023-11-22T06:48:21;2.30;99.90
52397;DHT22;38322;53.108;6.308;2023-11-22T06:50:47;2.30;99.90
52397;DHT22;38322;53.108;6.308;2023-11-22T06:53:13;2.30;99.90
52397;DHT22;38322;53.108;6.308;2023-11-22T06:55:38;2.40;99.90
52397;DHT22;38322;53.108;6.308;2023-11-22T06:58:04;2.40;99.90
52397;DHT22;38322;53.108;6.308;2023-11-22T07:00:31;2.40;99.90
52397;DHT22;38322;53.108;6.308;2023-11-22T07:02:58;2.40;99.90
52397;DHT22;38322;53.108;6.308;2023-11-22T07:05:24;2.40;99.90
52397;DHT22;38322;53.108;6.308;2023-11-22T07:07:50;2.40;99.90
52397;DHT22;38322;53.108;6.308;2023-11-22T07:10:16;2.40;99.90
52397;DHT22;38322;53.108;6.308;2023-11-22T07:12:46;2.40;99.90
52397;DHT22;38322;53.108;6.308;2023-11-22T07:15:13;2.40;99.90
52397;DHT22;38322;53.108;6.308;2023-11-22T07:17:39;2.40;99.90
52397;DHT22;38322;53.108;6.308;2023-11-22T07:20:06;2.40;99.90
52397;DHT22;38322;53.108;6.308;2023-11-22T07:22:35;2.40;99.90
52397;DHT22;38322;53.108;6.308;2023-11-22T07:25:01;2.40;99.90
52397;DHT22;38322;53.108;6.308;2023-11-22T07:27:28;2.40;99.90
52397;DHT22;38322;53.108;6.308;2023-11-22T07:29:54;2.40;99.90
52397;DHT22;38322;53.108;6.308;2023-11-22T07:32:20;2.40;99.90
52397;DHT22;38322;53.108;6.308;2023-11-22T07:34:46;2.40;99.90
52397;DHT22;38322;53.108;6.308;2023-11-22T07:37:12;2.40;99.90
52397;DHT22;38322;53.108;6.308;2023-11-22T07:39:40;2.50;99.90
52397;DHT22;38322;53.108;6.308;2023-11-22T07:42:08;2.50;99.90
52397;DHT22;38322;53.108;6.308;2023-11-22T07:44:35;2.50;99.90
52397;DHT22;38322;53.108;6.308;2023-11-22T07:47:03;2.50;99.90
52397;DHT22;38322;53.108;6.308;2023-11-22T07:49:33;2.50;99.90
52397;DHT22;38322;53.108;6.308;2023-11-22T07:52:03;2.50;99.90
52397;DHT22;38322;53.108;6.308;2023-11-22T07:54:29;2.60;99.90
52397;DHT22;38322;53.108;6.308;2023-11-22T07:56:56;2.70;99.90
52397;DHT22;38322;53.108;6.308;2023-11-22T07:59:21;2.70;99.90
52397;DHT22;38322;53.108;6.308;2023-11-22T08:01:48;2.60;99.90
52397;DHT22;38322;53.108;6.308;2023-11-22T08:04:15;2.70;99.90
52397;DHT22;38322;53.108;6.308;2023-11-22T08:06:42;2.70;99.90
52397;DHT22;38322;53.108;6.308;2023-11-22T08:09:08;2.70;99.90
52397;DHT22;38322;53.108;6.308;2023-11-22T08:11:35;2.80;99.90
52397;DHT22;38322;53.108;6.308;2023-11-22T08:14:02;2.80;99.90
52397;DHT22;38322;53.108;6.308;2023-11-22T08:16:28;2.80;99.90
52397;DHT22;38322;53.108;6.308;2023-11-22T08:18:54;2.80;99.90
52397;DHT22;38322;53.108;6.308;2023-11-22T08:21:20;2.90;99.90
52397;DHT22;38322;53.108;6.308;2023-11-22T08:23:46;2.90;99.90
52397;DHT22;38322;53.108;6.308;2023-11-22T08:26:14;2.90;99.90
52397;DHT22;38322;53.108;6.308;2023-11-22T08:28:40;2.90;99.90
52397;DHT22;38322;53.108;6.308;2023-11-22T08:31:06;2.90;99.90
52397;DHT22;38322;53.108;6.308;2023-11-22T08:33:39;3.00;99.90
52397;DHT22;38322;53.108;6.308;2023-11-22T08:36:06;3.00;99.90
52397;DHT22;38322;53.108;6.308;2023-11-22T08:38:33;3.00;99.90
52397;DHT22;38322;53.108;6.308;2023-11-22T08:41:03;3.10;99.90
52397;DHT22;38322;53.108;6.308;2023-11-22T08:43:30;3.10;99.90
52397;DHT22;38322;53.108;6.308;2023-11-22T08:45:58;3.10;99.90
52397;DHT22;38322;53.108;6.308;2023-11-22T08:48:24;3.10;99.90
52397;DHT22;38322;53.108;6.308;2023-11-22T08:50:50;3.20;99.90
52397;DHT22;38322;53.108;6.308;2023-11-22T08:53:19;3.20;99.90
52397;DHT22;38322;53.108;6.308;2023-11-22T08:55:46;3.20;99.90
52397;DHT22;38322;53.108;6.308;2023-11-22T08:58:12;3.20;99.90
52397;DHT22;38322;53.108;6.308;2023-11-22T09:00:39;3.20;99.90
52397;DHT22;38322;53.108;6.308;2023-11-22T09:03:07;3.20;99.90
52397;DHT22;38322;53.108;6.308;2023-11-22T09:05:34;3.30;99.90
52397;DHT22;38322;53.108;6.308;2023-11-22T09:07:59;3.30;99.90
52397;DHT22;38322;53.108;6.308;2023-11-22T09:10:25;3.30;99.90
52397;DHT22;38322;53.108;6.308;2023-11-22T09:12:52;3.30;99.90
52397;DHT22;38322;53.108;6.308;2023-11-22T09:15:18;3.40;99.90
52397;DHT22;38322;53.108;6.308;2023-11-22T09:17:52;3.40;99.90
52397;DHT22;38322;53.108;6.308;2023-11-22T09:20:20;3.40;99.90
52397;DHT22;38322;53.108;6.308;2023-11-22T09:22:49;3.40;99.90
52397;DHT22;38322;53.108;6.308;2023-11-22T09:27:43;3.50;99.90
52397;DHT22;38322;53.108;6.308;2023-11-22T09:30:13;3.50;99.90
52397;DHT22;38322;53.108;6.308;2023-11-22T09:32:45;3.50;99.90
52397;DHT22;38322;53.108;6.308;2023-11-22T09:35:13;3.60;99.90
52397;DHT22;38322;53.108;6.308;2023-11-22T09:37:40;3.60;99.90
52397;DHT22;38322;53.108;6.308;2023-11-22T09:40:08;3.70;99.90
52397;DHT22;38322;53.108;6.308;2023-11-22T09:42:35;3.70;99.90
52397;DHT22;38322;53.108;6.308;2023-11-22T09:45:02;3.70;99.90
52397;DHT22;38322;53.108;6.308;2023-11-22T09:47:31;3.80;99.90
52397;DHT22;38322;53.108;6.308;2023-11-22T09:50:00;3.80;99.90
52397;DHT22;38322;53.108;6.308;2023-11-22T09:52:33;3.80;99.90
52397;DHT22;38322;53.108;6.308;2023-11-22T09:55:01;3.90;99.90
52397;DHT22;38322;53.108;6.308;2023-11-22T09:57:28;3.90;99.90
52397;DHT22;38322;53.108;6.308;2023-11-22T09:59:56;4.00;99.90
52397;DHT22;38322;53.108;6.308;2023-11-22T10:02:23;4.00;99.90
52397;DHT22;38322;53.108;6.308;2023-11-22T10:04:53;4.00;99.90
52397;DHT22;38322;53.108;6.308;2023-11-22T10:07:19;4.10;99.90
52397;DHT22;38322;53.108;6.308;2023-11-22T10:09:46;4.10;99.90
52397;DHT22;38322;53.108;6.308;2023-11-22T10:12:12;4.20;99.90
52397;DHT22;38322;53.108;6.308;2023-11-22T10:14:40;4.20;99.90
52397;DHT22;38322;53.108;6.308;2023-11-22T10:17:06;4.30;99.90
52397;DHT22;38322;53.108;6.308;2023-11-22T10:19:34;4.30;99.90
52397;DHT22;38322;53.108;6.308;2023-11-22T10:22:03;4.30;99.90
52397;DHT22;38322;53.108;6.308;2023-11-22T10:24:31;4.30;99.90
52397;DHT22;38322;53.108;6.308;2023-11-22T10:27:01;4.40;99.90
52397;DHT22;38322;53.108;6.308;2023-11-22T10:29:28;4.40;99.90
52397;DHT22;38322;53.108;6.308;2023-11-22T10:31:54;4.40;99.90
52397;DHT22;38322;53.108;6.308;2023-11-22T10:34:23;4.40;99.90
52397;DHT22;38322;53.108;6.308;2023-11-22T10:36:49;4.50;99.90
52397;DHT22;38322;53.108;6.308;2023-11-22T10:39:19;4.50;99.90
52397;DHT22;38322;53.108;6.308;2023-11-22T10:41:46;4.60;99.90
52397;DHT22;38322;53.108;6.308;2023-11-22T10:44:12;4.80;99.90
52397;DHT22;38322;53.108;6.308;2023-11-22T10:46:39;4.80;99.90
52397;DHT22;38322;53.108;6.308;2023-11-22T10:49:06;4.80;99.90
52397;DHT22;38322;53.108;6.308;2023-11-22T10:51:33;4.90;99.90
52397;DHT22;38322;53.108;6.308;2023-11-22T10:54:00;4.90;99.90
52397;DHT22;38322;53.108;6.308;2023-11-22T10:56:30;4.90;99.90
52397;DHT22;38322;53.108;6.308;2023-11-22T10:59:06;4.80;99.90
52397;DHT22;38322;53.108;6.308;2023-11-22T11:01:34;4.70;99.90
52397;DHT22;38322;53.108;6.308;2023-11-22T11:04:02;4.70;99.90
52397;DHT22;38322;53.108;6.308;2023-11-22T11:06:34;4.70;99.90
52397;DHT22;38322;53.108;6.308;2023-11-22T11:09:02;4.80;99.90
52397;DHT22;38322;53.108;6.308;2023-11-22T11:11:35;4.80;99.90
52397;DHT22;38322;53.108;6.308;2023-11-22T11:14:03;4.90;99.90
52397;DHT22;38322;53.108;6.308;2023-11-22T11:16:34;4.90;99.90
52397;DHT22;38322;53.108;6.308;2023-11-22T11:19:03;5.00;99.90
52397;DHT22;38322;53.108;6.308;2023-11-22T11:21:32;5.00;99.90
52397;DHT22;38322;53.108;6.308;2023-11-22T11:23:58;5.10;99.90
52397;DHT22;38322;53.108;6.308;2023-11-22T11:26:29;5.10;99.90
52397;DHT22;38322;53.108;6.308;2023-11-22T11:28:57;5.20;99.90
52397;DHT22;38322;53.108;6.308;2023-11-22T11:31:23;5.30;99.90
52397;DHT22;38322;53.108;6.308;2023-11-22T11:36:25;5.40;99.90
52397;DHT22;38322;53.108;6.308;2023-11-22T11:38:54;5.50;99.90
52397;DHT22;38322;53.108;6.308;2023-11-22T11:41:26;5.60;99.90
52397;DHT22;38322;53.108;6.308;2023-11-22T11:43:52;5.50;99.90
52397;DHT22;38322;53.108;6.308;2023-11-22T11:46:18;5.60;99.90
52397;DHT22;38322;53.108;6.308;2023-11-22T11:48:48;5.60;99.90
52397;DHT22;38322;53.108;6.308;2023-11-22T11:51:15;5.60;99.90
52397;DHT22;38322;53.108;6.308;2023-11-22T11:53:41;5.70;99.90
52397;DHT22;38322;53.108;6.308;2023-11-22T11:56:08;5.70;99.90
52397;DHT22;38322;53.108;6.308;2023-11-22T11:58:34;5.80;99.90
52397;DHT22;38322;53.108;6.308;2023-11-22T12:01:00;5.80;99.90
52397;DHT22;38322;53.108;6.308;2023-11-22T12:03:26;5.70;99.90
52397;DHT22;38322;53.108;6.308;2023-11-22T12:05:52;5.70;99.90
52397;DHT22;38322;53.108;6.308;2023-11-22T12:08:17;5.70;99.90
52397;DHT22;38322;53.108;6.308;2023-11-22T12:10:45;5.60;99.90
52397;DHT22;38322;53.108;6.308;2023-11-22T12:13:20;5.60;99.90
52397;DHT22;38322;53.108;6.308;2023-11-22T12:15:47;5.50;99.90
52397;DHT22;38322;53.108;6.308;2023-11-22T12:18:13;5.50;99.90
52397;DHT22;38322;53.108;6.308;2023-11-22T12:20:39;5.40;99.90
52397;DHT22;38322;53.108;6.308;2023-11-22T12:23:05;5.40;99.90
52397;DHT22;38322;53.108;6.308;2023-11-22T12:25:32;5.30;99.90
52397;DHT22;38322;53.108;6.308;2023-11-22T12:27:58;5.30;99.90
52397;DHT22;38322;53.108;6.308;2023-11-22T12:30:32;5.30;99.90
52397;DHT22;38322;53.108;6.308;2023-11-22T12:33:06;5.30;99.90
52397;DHT22;38322;53.108;6.308;2023-11-22T12:35:34;5.20;99.90
52397;DHT22;38322;53.108;6.308;2023-11-22T12:38:01;5.20;99.90
52397;DHT22;38322;53.108;6.308;2023-11-22T12:40:29;5.20;99.90
52397;DHT22;38322;53.108;6.308;2023-11-22T12:42:57;5.20;99.90
52397;DHT22;38322;53.108;6.308;2023-11-22T12:45:24;5.20;99.90
52397;DHT22;38322;53.108;6.308;2023-11-22T12:47:51;5.20;99.90
52397;DHT22;38322;53.108;6.308;2023-11-22T12:50:33;5.20;99.90
52397;DHT22;38322;53.108;6.308;2023-11-22T12:53:12;5.20;99.90
52397;DHT22;38322;53.108;6.308;2023-11-22T12:55:43;5.20;99.90
52397;DHT22;38322;53.108;6.308;2023-11-22T12:58:10;5.20;99.90
52397;DHT22;38322;53.108;6.308;2023-11-22T13:00:35;5.20;99.90
52397;DHT22;38322;53.108;6.308;2023-11-22T13:03:02;5.20;99.90
52397;DHT22;38322;53.108;6.308;2023-11-22T13:05:28;5.20;99.90
52397;DHT22;38322;53.108;6.308;2023-11-22T13:07:54;5.20;99.90
52397;DHT22;38322;53.108;6.308;2023-11-22T13:10:19;5.20;99.90
52397;DHT22;38322;53.108;6.308;2023-11-22T13:12:51;5.20;99.90
52397;DHT22;38322;53.108;6.308;2023-11-22T13:15:17;5.20;99.90
52397;DHT22;38322;53.108;6.308;2023-11-22T13:17:43;5.20;99.90
52397;DHT22;38322;53.108;6.308;2023-11-22T13:20:09;5.20;99.90
52397;DHT22;38322;53.108;6.308;2023-11-22T13:22:41;5.20;99.90
52397;DHT22;38322;53.108;6.308;2023-11-22T13:25:08;5.20;99.90
52397;DHT22;38322;53.108;6.308;2023-11-22T13:27:36;5.20;99.90
52397;DHT22;38322;53.108;6.308;2023-11-22T13:30:03;5.20;99.90
52397;DHT22;38322;53.108;6.308;2023-11-22T13:32:30;5.20;99.90
52397;DHT22;38322;53.108;6.308;2023-11-22T13:34:57;5.10;99.90
52397;DHT22;38322;53.108;6.308;2023-11-22T13:37:23;5.10;99.90
52397;DHT22;38322;53.108;6.308;2023-11-22T13:39:49;5.10;99.90
52397;DHT22;38322;53.108;6.308;2023-11-22T13:42:16;5.10;99.90
52397;DHT22;38322;53.108;6.308;2023-11-22T13:44:41;5.10;99.90
52397;DHT22;38322;53.108;6.308;2023-11-22T13:47:09;5.10;99.90
52397;DHT22;38322;53.108;6.308;2023-11-22T13:49:35;5.10;99.90
52397;DHT22;38322;53.108;6.308;2023-11-22T13:52:02;5.10;99.90
52397;DHT22;38322;53.108;6.308;2023-11-22T13:54:28;5.00;99.90
52397;DHT22;38322;53.108;6.308;2023-11-22T13:56:54;5.00;99.90
52397;DHT22;38322;53.108;6.308;2023-11-22T13:59:20;5.00;99.90
52397;DHT22;38322;53.108;6.308;2023-11-22T14:01:46;5.00;99.90
52397;DHT22;38322;53.108;6.308;2023-11-22T14:04:12;5.00;99.90
52397;DHT22;38322;53.108;6.308;2023-11-22T14:06:38;5.00;99.90
52397;DHT22;38322;53.108;6.308;2023-11-22T14:09:03;5.00;99.90
52397;DHT22;38322;53.108;6.308;2023-11-22T14:11:30;5.00;99.90
52397;DHT22;38322;53.108;6.308;2023-11-22T14:13:57;5.00;99.90
52397;DHT22;38322;53.108;6.308;2023-11-22T14:16:24;5.00;99.90
52397;DHT22;38322;53.108;6.308;2023-11-22T14:18:51;5.00;99.90
52397;DHT22;38322;53.108;6.308;2023-11-22T14:21:17;5.00;99.90
52397;DHT22;38322;53.108;6.308;2023-11-22T14:23:43;5.00;99.90
52397;DHT22;38322;53.108;6.308;2023-11-22T14:26:09;5.00;99.90
52397;DHT22;38322;53.108;6.308;2023-11-22T14:28:35;5.00;99.90
52397;DHT22;38322;53.108;6.308;2023-11-22T14:31:01;4.90;99.90
52397;DHT22;38322;53.108;6.308;2023-11-22T14:33:27;5.00;99.90
52397;DHT22;38322;53.108;6.308;2023-11-22T14:35:57;5.00;99.90
52397;DHT22;38322;53.108;6.308;2023-11-22T14:38:24;5.00;99.90
52397;DHT22;38322;53.108;6.308;2023-11-22T14:40:51;5.00;99.90
52397;DHT22;38322;53.108;6.308;2023-11-22T14:43:17;5.00;99.90
52397;DHT22;38322;53.108;6.308;2023-11-22T14:45:43;5.00;99.90
52397;DHT22;38322;53.108;6.308;2023-11-22T14:48:09;5.00;99.90
52397;DHT22;38322;53.108;6.308;2023-11-22T14:50:36;5.00;99.90
52397;DHT22;38322;53.108;6.308;2023-11-22T14:53:02;5.00;99.90
52397;DHT22;38322;53.108;6.308;2023-11-22T14:55:28;5.00;99.90
52397;DHT22;38322;53.108;6.308;2023-11-22T14:57:54;5.00;99.90
52397;DHT22;38322;53.108;6.308;2023-11-22T15:00:22;5.00;99.90
52397;DHT22;38322;53.108;6.308;2023-11-22T15:02:48;5.00;99.90
52397;DHT22;38322;53.108;6.308;2023-11-22T15:05:19;4.90;99.90
52397;DHT22;38322;53.108;6.308;2023-11-22T15:07:45;5.00;99.90
52397;DHT22;38322;53.108;6.308;2023-11-22T15:10:11;5.00;99.90
52397;DHT22;38322;53.108;6.308;2023-11-22T15:12:38;5.00;99.90
52397;DHT22;38322;53.108;6.308;2023-11-22T15:15:07;5.00;99.90
52397;DHT22;38322;53.108;6.308;2023-11-22T15:17:34;4.90;99.90
52397;DHT22;38322;53.108;6.308;2023-11-22T15:20:00;4.90;99.90
52397;DHT22;38322;53.108;6.308;2023-11-22T15:22:26;4.90;99.90
52397;DHT22;38322;53.108;6.308;2023-11-22T15:24:51;5.00;99.90
52397;DHT22;38322;53.108;6.308;2023-11-22T15:27:18;4.90;99.90
52397;DHT22;38322;53.108;6.308;2023-11-22T15:29:43;5.00;99.90
52397;DHT22;38322;53.108;6.308;2023-11-22T15:32:09;4.90;99.90
52397;DHT22;38322;53.108;6.308;2023-11-22T15:34:35;4.90;99.90
52397;DHT22;38322;53.108;6.308;2023-11-22T15:37:03;4.90;99.90
52397;DHT22;38322;53.108;6.308;2023-11-22T15:39:29;4.90;99.90
52397;DHT22;38322;53.108;6.308;2023-11-22T15:41:55;4.90;99.90
52397;DHT22;38322;53.108;6.308;2023-11-22T15:44:21;4.90;99.90
52397;DHT22;38322;53.108;6.308;2023-11-22T15:46:47;4.90;99.90
52397;DHT22;38322;53.108;6.308;2023-11-22T15:49:13;4.90;99.90
52397;DHT22;38322;53.108;6.308;2023-11-22T15:51:39;4.90;99.90
52397;DHT22;38322;53.108;6.308;2023-11-22T15:54:06;4.90;99.90
52397;DHT22;38322;53.108;6.308;2023-11-22T15:56:33;4.90;99.90
52397;DHT22;38322;53.108;6.308;2023-11-22T15:58:59;4.90;99.90
52397;DHT22;38322;53.108;6.308;2023-11-22T16:01:27;4.90;99.90
52397;DHT22;38322;53.108;6.308;2023-11-22T16:03:53;4.90;99.90
52397;DHT22;38322;53.108;6.308;2023-11-22T16:06:20;5.00;99.90
52397;DHT22;38322;53.108;6.308;2023-11-22T16:08:46;5.00;99.90
52397;DHT22;38322;53.108;6.308;2023-11-22T16:11:12;5.00;99.90
52397;DHT22;38322;53.108;6.308;2023-11-22T16:13:38;5.00;99.90
52397;DHT22;38322;53.108;6.308;2023-11-22T16:16:04;5.00;99.90
52397;DHT22;38322;53.108;6.308;2023-11-22T16:18:30;5.00;99.90
52397;DHT22;38322;53.108;6.308;2023-11-22T16:20:57;5.00;99.90
52397;DHT22;38322;53.108;6.308;2023-11-22T16:23:24;5.00;99.90
52397;DHT22;38322;53.108;6.308;2023-11-22T16:25:50;5.00;99.90
52397;DHT22;38322;53.108;6.308;2023-11-22T16:28:17;5.00;99.90
52397;DHT22;38322;53.108;6.308;2023-11-22T16:30:44;5.00;99.90
52397;DHT22;38322;53.108;6.308;2023-11-22T16:33:11;5.00;99.90
52397;DHT22;38322;53.108;6.308;2023-11-22T16:35:38;5.10;99.90
52397;DHT22;38322;53.108;6.308;2023-11-22T16:38:04;5.10;99.90
52397;DHT22;38322;53.108;6.308;2023-11-22T16:40:30;5.10;99.90
52397;DHT22;38322;53.108;6.308;2023-11-22T16:42:56;5.60;99.90
52397;DHT22;38322;53.108;6.308;2023-11-22T16:45:23;5.10;99.90
52397;DHT22;38322;53.108;6.308;2023-11-22T16:47:48;5.20;99.90
52397;DHT22;38322;53.108;6.308;2023-11-22T16:50:14;5.20;99.90
52397;DHT22;38322;53.108;6.308;2023-11-22T16:52:41;5.20;99.90
52397;DHT22;38322;53.108;6.308;2023-11-22T16:55:09;5.20;99.90
52397;DHT22;38322;53.108;6.308;2023-11-22T16:57:38;5.20;99.90
52397;DHT22;38322;53.108;6.308;2023-11-22T17:00:06;5.20;99.90
52397;DHT22;38322;53.108;6.308;2023-11-22T17:02:35;5.30;99.90
52397;DHT22;38322;53.108;6.308;2023-11-22T17:05:02;5.30;99.90
52397;DHT22;38322;53.108;6.308;2023-11-22T17:07:28;5.30;99.90
52397;DHT22;38322;53.108;6.308;2023-11-22T17:09:55;5.30;99.90
52397;DHT22;38322;53.108;6.308;2023-11-22T17:12:21;5.30;99.90
52397;DHT22;38322;53.108;6.308;2023-11-22T17:14:47;5.40;99.90
52397;DHT22;38322;53.108;6.308;2023-11-22T17:17:15;5.30;99.90
52397;DHT22;38322;53.108;6.308;2023-11-22T17:19:42;5.40;99.90
52397;DHT22;38322;53.108;6.308;2023-11-22T17:22:08;5.40;99.90
52397;DHT22;38322;53.108;6.308;2023-11-22T17:24:33;5.30;99.90
52397;DHT22;38322;53.108;6.308;2023-11-22T17:26:59;5.40;99.90
52397;DHT22;38322;53.108;6.308;2023-11-22T17:29:25;5.40;99.90
52397;DHT22;38322;53.108;6.308;2023-11-22T17:31:51;5.30;99.90
52397;DHT22;38322;53.108;6.308;2023-11-22T17:34:17;5.40;99.90
52397;DHT22;38322;53.108;6.308;2023-11-22T17:36:44;5.40;99.90
52397;DHT22;38322;53.108;6.308;2023-11-22T17:39:12;5.40;99.90
52397;DHT22;38322;53.108;6.308;2023-11-22T17:41:41;5.30;99.90
52397;DHT22;38322;53.108;6.308;2023-11-22T17:44:07;5.40;99.90
52397;DHT22;38322;53.108;6.308;2023-11-22T17:46:33;5.40;99.90
52397;DHT22;38322;53.108;6.308;2023-11-22T17:49:02;5.40;99.90
52397;DHT22;38322;53.108;6.308;2023-11-22T17:51:28;5.40;99.90
52397;DHT22;38322;53.108;6.308;2023-11-22T17:53:54;5.40;99.90
52397;DHT22;38322;53.108;6.308;2023-11-22T17:56:20;5.40;99.90
52397;DHT22;38322;53.108;6.308;2023-11-22T17:58:47;5.40;99.90
52397;DHT22;38322;53.108;6.308;2023-11-22T18:01:13;5.40;99.90
52397;DHT22;38322;53.108;6.308;2023-11-22T18:03:39;5.40;99.90
52397;DHT22;38322;53.108;6.308;2023-11-22T18:06:05;5.50;99.90
52397;DHT22;38322;53.108;6.308;2023-11-22T18:08:31;5.50;99.90
52397;DHT22;38322;53.108;6.308;2023-11-22T18:10:57;5.50;99.90
52397;DHT22;38322;53.108;6.308;2023-11-22T18:13:23;5.50;99.90
52397;DHT22;38322;53.108;6.308;2023-11-22T18:15:49;5.50;99.90
52397;DHT22;38322;53.108;6.308;2023-11-22T18:18:14;5.50;99.90
52397;DHT22;38322;53.108;6.308;2023-11-22T18:20:40;5.60;99.90
52397;DHT22;38322;53.108;6.308;2023-11-22T18:23:07;5.60;99.90
52397;DHT22;38322;53.108;6.308;2023-11-22T18:25:33;5.60;99.90
52397;DHT22;38322;53.108;6.308;2023-11-22T18:27:59;5.60;99.90
52397;DHT22;38322;53.108;6.308;2023-11-22T18:30:26;5.60;99.90
52397;DHT22;38322;53.108;6.308;2023-11-22T18:32:52;5.60;99.90
52397;DHT22;38322;53.108;6.308;2023-11-22T18:35:18;5.60;99.90
52397;DHT22;38322;53.108;6.308;2023-11-22T18:37:45;5.60;99.90
52397;DHT22;38322;53.108;6.308;2023-11-22T18:40:11;5.70;99.90
52397;DHT22;38322;53.108;6.308;2023-11-22T18:42:37;5.60;99.90
52397;DHT22;38322;53.108;6.308;2023-11-22T18:45:04;5.70;99.90
52397;DHT22;38322;53.108;6.308;2023-11-22T18:47:30;5.70;99.90
52397;DHT22;38322;53.108;6.308;2023-11-22T18:49:56;5.70;99.90
52397;DHT22;38322;53.108;6.308;2023-11-22T18:52:21;5.70;99.90
52397;DHT22;38322;53.108;6.308;2023-11-22T18:54:48;5.70;99.90
52397;DHT22;38322;53.108;6.308;2023-11-22T18:57:14;5.70;99.90
52397;DHT22;38322;53.108;6.308;2023-11-22T18:59:42;5.70;99.90
52397;DHT22;38322;53.108;6.308;2023-11-22T19:02:11;5.80;99.90
52397;DHT22;38322;53.108;6.308;2023-11-22T19:04:38;5.80;99.90
52397;DHT22;38322;53.108;6.308;2023-11-22T19:07:04;5.80;99.90
52397;DHT22;38322;53.108;6.308;2023-11-22T19:09:30;5.80;99.90
52397;DHT22;38322;53.108;6.308;2023-11-22T19:11:56;5.80;99.90
52397;DHT22;38322;53.108;6.308;2023-11-22T19:14:22;5.80;99.90
52397;DHT22;38322;53.108;6.308;2023-11-22T19:16:51;5.80;99.90
52397;DHT22;38322;53.108;6.308;2023-11-22T19:19:18;5.80;99.90
52397;DHT22;38322;53.108;6.308;2023-11-22T19:21:43;5.90;99.90
52397;DHT22;38322;53.108;6.308;2023-11-22T19:24:09;5.90;99.90
52397;DHT22;38322;53.108;6.308;2023-11-22T19:26:35;5.90;99.90
52397;DHT22;38322;53.108;6.308;2023-11-22T19:29:02;5.90;99.90
52397;DHT22;38322;53.108;6.308;2023-11-22T19:31:28;5.90;99.90
52397;DHT22;38322;53.108;6.308;2023-11-22T19:33:54;6.00;99.90
52397;DHT22;38322;53.108;6.308;2023-11-22T19:36:25;6.00;99.90
52397;DHT22;38322;53.108;6.308;2023-11-22T19:38:52;6.00;99.90
52397;DHT22;38322;53.108;6.308;2023-11-22T19:41:19;6.00;99.90
52397;DHT22;38322;53.108;6.308;2023-11-22T19:43:47;6.00;99.90
52397;DHT22;38322;53.108;6.308;2023-11-22T19:46:13;6.00;99.90
52397;DHT22;38322;53.108;6.308;2023-11-22T19:48:39;6.10;99.90
52397;DHT22;38322;53.108;6.308;2023-11-22T19:51:05;6.10;99.90
52397;DHT22;38322;53.108;6.308;2023-11-22T19:53:32;6.10;99.90
52397;DHT22;38322;53.108;6.308;2023-11-22T19:55:59;6.10;99.90
52397;DHT22;38322;53.108;6.308;2023-11-22T19:58:28;6.10;99.90
52397;DHT22;38322;53.108;6.308;2023-11-22T20:00:54;6.10;99.90
52397;DHT22;38322;53.108;6.308;2023-11-22T20:03:20;6.10;99.90
52397;DHT22;38322;53.108;6.308;2023-11-22T20:05:46;6.10;99.90
52397;DHT22;38322;53.108;6.308;2023-11-22T20:08:12;6.10;99.90
52397;DHT22;38322;53.108;6.308;2023-11-22T20:10:39;6.20;99.90
52397;DHT22;38322;53.108;6.308;2023-11-22T20:13:05;6.20;99.90
52397;DHT22;38322;53.108;6.308;2023-11-22T20:15:31;6.30;99.90
52397;DHT22;38322;53.108;6.308;2023-11-22T20:17:57;6.30;99.90
52397;DHT22;38322;53.108;6.308;2023-11-22T20:20:23;6.30;99.90
52397;DHT22;38322;53.108;6.308;2023-11-22T20:22:51;6.30;99.90
52397;DHT22;38322;53.108;6.308;2023-11-22T20:25:17;6.40;99.90
52397;DHT22;38322;53.108;6.308;2023-11-22T20:27:43;6.40;99.90
52397;DHT22;38322;53.108;6.308;2023-11-22T20:30:09;6.40;99.90
52397;DHT22;38322;53.108;6.308;2023-11-22T20:32:35;6.40;99.90
52397;DHT22;38322;53.108;6.308;2023-11-22T20:35:01;6.50;99.90
52397;DHT22;38322;53.108;6.308;2023-11-22T20:37:27;6.60;99.90
52397;DHT22;38322;53.108;6.308;2023-11-22T20:39:53;6.60;99.90
52397;DHT22;38322;53.108;6.308;2023-11-22T20:42:19;6.60;99.90
52397;DHT22;38322;53.108;6.308;2023-11-22T20:44:45;6.60;99.90
52397;DHT22;38322;53.108;6.308;2023-11-22T20:47:11;6.60;99.90
52397;DHT22;38322;53.108;6.308;2023-11-22T20:49:37;6.60;99.90
52397;DHT22;38322;53.108;6.308;2023-11-22T20:52:03;6.70;99.90
52397;DHT22;38322;53.108;6.308;2023-11-22T20:54:29;6.70;99.90
52397;DHT22;38322;53.108;6.308;2023-11-22T20:56:55;6.70;99.90
52397;DHT22;38322;53.108;6.308;2023-11-22T20:59:21;6.70;99.90
